San Ygnacio, TX

1:51 PM CST on January 31, 2015 (GMT -0600)
Zapata | Change Station
CLOSE
Current Station
Airport
Location: Zapata,
Elevation: 423 ft
Nearby Weather Stations

Elev 423 ft 26.97 °N, 99.25 °W | Updated 16 minutes ago

Overcast
Overcast
73 °F
Feels Like 73 °F
N
18
Wind Variable Wind from SSE
Gusts 25 mph

Today
High -- | Low -- °F
--% Chance of Precip.
Yesterday
High -- | Low -- °F
Precip. -- in
7:23 AM 6:18 PM
Waxing Gibbous, 91% visible
Pressure 29.95 in
Visibility 10.0 miles
Clouds Scattered Clouds 3100 ft
Mostly Cloudy 3900 ft
Mostly Cloudy 4700 ft
Dew Point 57 °F
Humidity 57%
Rainfall 0.00 in
Snow Depth Not available.
UV 3 out of 12
Pollen 8.40 out of 12
Air Quality Not available.
Flu Activity Not available.
METAR KAPY 311935Z AUTO 15016G22KT 10SM SCT031 BKN039 BKN047 22/13 A2995 RMK AO2 LTG DSNT SW T02270138

More Conditions Fewer Conditions

Pressure 29.95 in
Visibility 10.0 miles
Clouds Scattered Clouds 3100 ft
Mostly Cloudy 3900 ft
Mostly Cloudy 4700 ft
Dew Point 57 °F
Humidity 57%
Rainfall 0.00 in
Snow Depth Not available.
UV 3 out of 12
Pollen 8.40 out of 12
Air Quality Not available.
Flu Activity Not available.
METAR KAPY 311935Z AUTO 15016G22KT 10SM SCT031 BKN039 BKN047 22/13 A2995 RMK AO2 LTG DSNT SW T02270138

More Conditions Fewer Conditions

Nowcast | as of 12:38 PM CST on January 31, 2015

Through 3 PM...scattered showers will move to the northeast across the lower to Middle Valley and ranchlands. Precipitation amounts will generally range from a trace to a few hundredths of an inch.

×

10-Day Weather Forecast

Almanac

Astronomy

Jan. 31, 2015 Rise Set
Actual Time
Civil Twilight
Nautical Twilight
Astronomical Twilight
Moon
Length of Visible Light
Length of Day
Tomorrow will be .
, % of the Moon is Illuminated

Today's Extremes

State Highs State Lows

Community

WunderPhotos

Upload Photos

1,792,157 photos uploaded!

WunderBlogs® & News

Nearby

Air Quality

  Air Quality AQ Index Pollutant
Not available.

Snow Depth

Station Depth Elevation

Earthquake Activity

City Distance Mag. Time & Date
Minimum magnitude displayed is 2.5.

Coastal Water Temperatures

Place Temperature

Nearby Weather Stations